Aeroporto :
LOGIN :

Iscrizione | Disclaimer

   EN    FR    IT 

 










Sommario :    VFR   VFR Marginale   IFR   IFR Intensivo   IFR Molto Intensivo
Visibilità : 
Base nubi : 
>= 8 km
>= 3000ft
5 / 8 km
1000 / 3000 ft
1500m / 5 km
500 / 1000 ft
800 / 1500m
200 / 500 ft
< 800m
< 200 ft
Simboli :   Temporali  Nebbia  Neve Forte  Precipitazioni Forti  Vento > 20 kt
SIGMETs :   Varie  Temporali  Ghiacco  Turbolenza  Onda orograficha  Ceneri Vulcaniche







- Altitudine del aeroporto : -15 ft
- Codice IATA : RTM


EHRD - Rotterdam Zestienhoven

ULTIMO METAR :
  • 211355Z AUTO 06009KT 020V100 9999 NCD 22/08 Q1018 NOSIG

METARs OBSOLETI :
  • 211325Z AUTO 04007KT 010V080 9999 NCD 22/08 Q1018 NOSIG
  • 211255Z AUTO 05008KT 020V100 9999 NCD 22/09 Q1019 NOSIG
  • 211225Z AUTO 07008KT 030V120 9999 NCD 21/07 Q1019 NOSIG
  • 211155Z AUTO 05007KT 360V090 9999 NCD 21/07 Q1020 NOSIG
  • 211125Z AUTO 06006KT 020V110 9999 NCD 20/07 Q1020 NOSIG

TAF TAF EHRD
Valido dal 21 a 12 ore il 22 a 18 ore UTC


211120Z 2112/2218 06008KT CAVOK
BECMG 2209/2212 11014KT
Nessun NOTAM noto per questo aeroporto.



MetMap, La meteo Aeronautica in un colpo d'occhio ! - Copyright ORBIFLY Dicembre 2007 - Disclaimer

ORBIFLY MET'MAP TEAM :

Programmazione e sviluppo : Alexandra Zaïnal
Concezione e sviluppo : Baudouin d'Aumeries
Co-Programmazione e sviluppo : Marc-Olivier Méhu
Supporto tecnico e logistico : Manuel Goepfert
Aiuto per la traduzione : Arnaldo La Scala

Contatto : metmap@orbifly.com




FONTI E CREDITI :

   NOAA